This is the latest recevied weather packets stored in our database for station/object KA5FVT. If no packets are shown the sender has not sent any weather packets the latest 10 day(s).
| Time | Temp. | Humidity | Pressure | Rain* | Wind** | Luminosity | Snow |
|---|---|---|---|---|---|---|---|
| 1777485569 | 30° C | 70% | 1011.8 hPa | 0 mm | - | - | - |
| 1777482569 | 28.89° C | 74% | 1012.6 hPa | 0 mm | - | - | - |
| 1777481966 | 28.33° C | 74% | 1012.6 hPa | 0 mm | - | - | - |
| 1777478667 | 27.78° C | 76% | 1012.8 hPa | 0 mm | - | - | - |
| 1777475669 | 27.22° C | 79% | 1012.1 hPa | 0 mm | - | - | - |
| 1777474766 | 27.22° C | 80% | 1012.4 hPa | 0 mm | - | - | - |
| 1777473266 | 26.67° C | 82% | 1012 hPa | 0 mm | - | - | - |
| 1777472367 | 26.67° C | 83% | 1012.2 hPa | 0 mm | - | - | - |
| 1777466666 | 25° C | 89% | 1011.5 hPa | 0 mm | - | - | - |
| 1777465469 | 24.44° C | 89% | 1011.4 hPa | 0 mm | - | - | - |
| 1777465169 | 24.44° C | 89% | 1011.4 hPa | 0 mm | - | - | - |
| 1777464866 | 24.44° C | 89% | 1011.5 hPa | 0 mm | - | - | - |
| 1777460966 | 25° C | 88% | 1010.9 hPa | 0 mm | - | - | - |
| 1777460369 | 25° C | 88% | 1010.9 hPa | 0 mm | - | - | - |
| 1777460066 | 25° C | 88% | 1010.8 hPa | 0 mm | - | - | - |
| 1777458566 | 25° C | 87% | 1010.1 hPa | 0 mm | - | - | - |
| 1777457667 | 25° C | 87% | 1010.4 hPa | 0 mm | - | - | - |
| 1777456166 | 25° C | 87% | 1010.7 hPa | 0 mm | - | - | - |
| 1777455266 | 25° C | 86% | 1010.7 hPa | 0 mm | - | - | - |
| 1777453166 | 25° C | 86% | 1010.5 hPa | 0 mm | - | - | - |
| 1777452266 | 25.56° C | 86% | 1010.5 hPa | 0 mm | - | - | - |
| 1777451367 | 25.56° C | 86% | 1010.6 hPa | 0 mm | - | - | - |
| 1777451066 | 25.56° C | 85% | 1010.7 hPa | 0 mm | - | - | - |
| 1777449566 | 25.56° C | 84% | 1011.1 hPa | 0 mm | - | - | - |
| 1777448666 | 25.56° C | 84% | 1011.2 hPa | 0 mm | - | - | - |
* Rain latest hour (hover to see other rain measurements)
** Current wind speed in m/s (hover to see current wind gust speed)